To NAV CANADA Home Page Login to a new session Search on AWWS site Feedback and Comments Disclaimer Vers la page française équivalente Tips FAQ What's new on the site To the Forecasts and Observations / NOTAM section To "File a Flight Plan" website Publications and other links Update of the User's profile FIC Telephone Numbers My Weather Data Folder Route Weather Data Regional Weather Data Local Weather Data To the Forecasts and Observations / NOTAM section
Request Generated 02/27/2015 at 22:37:08 UTC . Weather information available at that time is displayed.

METAR/TAF

TORONTO/BUTTONVILLE MUNICIPAL/ON    

METAR CYKZ 272200Z 26010KT 15SM FEW035 M10/M19 A3050 RMK CU1 SLP347=
METAR CYKZ 272100Z 27007KT 15SM FEW032 M09/M18 A3048 RMK CU2 SLP341=
METAR CYKZ 272000Z 28006KT 15SM SCT032 M09/M19 A3047 RMK CU3 SLP335=

TAF CYKZ 271743Z 2718/2806 28010KT P6SM FEW030
BECMG 2800/2802 25008KT
RMK NXT FCST BY 280000Z=
Your time UTC time
Weather data provided by Environment Canada and NAV CANADA